createdAt,value
2019-05-10T00:02:02.506Z,8.27
2019-05-10T00:04:50.587Z,8.25
2019-05-10T00:07:38.570Z,8.23
2019-05-10T00:10:07.812Z,8.19
2019-05-10T00:12:55.857Z,8.21
2019-05-10T00:15:27.498Z,8.17
2019-05-10T00:17:59.139Z,8.14
2019-05-10T00:20:29.211Z,8.07
2019-05-10T00:22:59.277Z,8.03
2019-05-10T00:25:29.358Z,8.07
2019-05-10T00:27:59.440Z,8.03
2019-05-10T00:30:29.511Z,8.01
2019-05-10T00:32:59.585Z,7.92
2019-05-10T00:35:29.651Z,7.84
2019-05-10T00:38:00.028Z,7.78
2019-05-10T00:40:30.115Z,7.73
2019-05-10T00:43:00.181Z,7.77
2019-05-10T00:45:30.247Z,7.72
2019-05-10T00:48:00.826Z,7.62
2019-05-10T00:50:30.899Z,7.61
2019-05-10T00:53:00.960Z,7.65
2019-05-10T00:55:31.028Z,7.64
2019-05-10T00:58:01.094Z,7.66
2019-05-10T01:00:31.261Z,7.58
2019-05-10T01:03:01.338Z,7.53
2019-05-10T01:05:31.421Z,7.48
2019-05-10T01:08:01.576Z,7.49
2019-05-10T01:10:32.194Z,7.53
2019-05-10T01:13:03.765Z,7.56
2019-05-10T01:15:33.850Z,7.50
2019-05-10T01:18:03.940Z,7.34
2019-05-10T01:20:34.043Z,7.31
2019-05-10T01:23:04.114Z,7.33
2019-05-10T01:25:35.847Z,7.35
2019-05-10T01:28:06.394Z,7.38
2019-05-10T01:30:36.596Z,7.38
2019-05-10T01:33:08.009Z,7.42
2019-05-10T01:35:38.107Z,7.34
2019-05-10T01:38:09.523Z,7.28
2019-05-10T01:40:39.708Z,7.28
2019-05-10T01:43:09.754Z,7.31
2019-05-10T01:45:40.055Z,7.23
2019-05-10T01:48:11.590Z,7.19
2019-05-10T01:50:41.701Z,7.17
2019-05-10T01:53:11.774Z,7.19
2019-05-10T01:55:51.508Z,7.16
2019-05-10T01:58:13.653Z,7.18
2019-05-10T02:00:43.753Z,7.10
2019-05-10T02:03:13.813Z,7.06
2019-05-10T02:05:43.902Z,6.97
2019-05-10T02:08:14.053Z,7.00
2019-05-10T02:10:44.167Z,6.94
2019-05-10T02:13:14.253Z,6.92
2019-05-10T02:15:44.762Z,6.95
2019-05-10T02:18:14.829Z,6.99
2019-05-10T02:20:44.922Z,6.91
2019-05-10T02:23:15.001Z,6.96
2019-05-10T02:25:45.087Z,6.93
2019-05-10T02:28:15.238Z,6.96
2019-05-10T02:30:45.351Z,6.96
2019-05-10T02:33:15.423Z,7.01
2019-05-10T02:35:45.513Z,7.12
2019-05-10T02:38:15.688Z,7.07
2019-05-10T02:40:45.727Z,7.12
2019-05-10T02:43:15.817Z,7.12
2019-05-10T02:45:45.832Z,7.08
2019-05-10T02:48:15.922Z,7.09
2019-05-10T02:50:46.259Z,7.06
2019-05-10T02:53:16.337Z,6.95
2019-05-10T02:55:47.157Z,6.96
2019-05-10T02:58:17.427Z,6.96
2019-05-10T03:00:49.053Z,6.99
2019-05-10T03:03:21.819Z,7.04
2019-05-10T03:05:53.980Z,7.02
2019-05-10T03:08:24.446Z,6.99
2019-05-10T03:10:58.850Z,7.01
2019-05-10T03:13:29.845Z,6.98
2019-05-10T03:16:03.263Z,7.01
2019-05-10T03:18:33.777Z,6.91
2019-05-10T03:21:05.055Z,6.94
2019-05-10T03:23:35.143Z,6.88
2019-05-10T03:26:05.256Z,6.90
2019-05-10T03:28:35.376Z,6.87
2019-05-10T03:31:05.683Z,6.83
2019-05-10T03:33:35.761Z,6.82
2019-05-10T03:36:05.832Z,6.81
2019-05-10T03:38:36.001Z,6.75
2019-05-10T03:41:06.194Z,6.73
2019-05-10T03:43:36.236Z,6.76
2019-05-10T03:46:06.306Z,6.73
2019-05-10T03:48:36.391Z,6.67
2019-05-10T03:51:06.453Z,6.58
2019-05-10T03:53:36.531Z,6.58
2019-05-10T03:56:06.608Z,6.70
2019-05-10T03:58:36.677Z,6.73
2019-05-10T04:01:06.828Z,6.76
2019-05-10T04:03:36.892Z,6.69
2019-05-10T04:06:06.961Z,6.65
2019-05-10T04:08:37.024Z,6.69
2019-05-10T04:11:07.084Z,6.63
2019-05-10T04:13:37.163Z,6.56
2019-05-10T04:16:07.253Z,6.64
2019-05-10T04:18:37.345Z,6.72
2019-05-10T04:21:07.473Z,6.79
2019-05-10T04:23:37.627Z,6.87
2019-05-10T04:26:07.714Z,6.97
2019-05-10T04:28:37.790Z,7.01
2019-05-10T04:31:07.895Z,7.04
2019-05-10T04:33:38.032Z,7.04
2019-05-10T04:36:12.417Z,7.09
2019-05-10T04:38:39.897Z,7.15
2019-05-10T04:41:09.965Z,7.09
2019-05-10T04:43:40.064Z,7.16
2019-05-10T04:46:10.143Z,7.15
2019-05-10T04:48:40.245Z,7.30
2019-05-10T04:51:10.323Z,7.44
2019-05-10T04:53:40.423Z,7.51
2019-05-10T04:56:10.495Z,7.59
2019-05-10T04:58:40.585Z,7.64
2019-05-10T05:01:10.652Z,7.62
2019-05-10T05:03:40.763Z,7.59
2019-05-10T05:06:10.845Z,7.70
2019-05-10T05:08:40.936Z,7.68
2019-05-10T05:11:11.016Z,7.78
2019-05-10T05:13:41.115Z,7.86
2019-05-10T05:16:11.189Z,7.93
2019-05-10T05:18:41.298Z,8.01
2019-05-10T05:21:11.377Z,8.13
2019-05-10T05:23:41.485Z,8.20
2019-05-10T05:26:11.569Z,8.21
2019-05-10T05:28:41.669Z,8.17
2019-05-10T05:31:11.739Z,8.16
2019-05-10T05:33:41.788Z,8.19
2019-05-10T05:36:11.851Z,8.34
2019-05-10T05:38:47.271Z,8.37
2019-05-10T05:41:13.662Z,8.29
2019-05-10T05:43:46.309Z,8.38
2019-05-10T05:46:15.480Z,8.48
2019-05-10T05:48:45.513Z,8.41
2019-05-10T05:51:15.587Z,8.38
2019-05-10T05:53:45.682Z,8.51
2019-05-10T05:56:15.793Z,8.65
2019-05-10T05:58:47.068Z,8.70
2019-05-10T06:01:26.430Z,8.71
2019-05-10T06:03:49.096Z,8.85
2019-05-10T06:06:23.574Z,9.02
2019-05-10T06:08:54.425Z,9.10
2019-05-10T06:11:22.674Z,9.25
2019-05-10T06:13:52.718Z,9.24
2019-05-10T06:16:22.810Z,9.29
2019-05-10T06:18:52.845Z,9.23
2019-05-10T06:21:25.260Z,9.29
2019-05-10T06:23:59.222Z,9.41
2019-05-10T06:26:28.789Z,9.38
2019-05-10T06:29:03.784Z,9.58
2019-05-10T06:31:30.387Z,9.57
2019-05-10T06:34:00.497Z,9.71
2019-05-10T06:36:30.578Z,9.81
2019-05-10T06:39:01.264Z,9.84
2019-05-10T06:41:32.665Z,9.98
2019-05-10T06:44:02.996Z,9.96
2019-05-10T06:46:33.078Z,10.03
2019-05-10T06:49:08.434Z,10.03
2019-05-10T06:51:35.444Z,9.89
2019-05-10T06:54:05.561Z,10.09
2019-05-10T06:56:35.705Z,10.12
2019-05-10T06:59:13.646Z,10.25
2019-05-10T07:01:38.318Z,10.42
2019-05-10T07:04:09.323Z,10.62
2019-05-10T07:06:39.399Z,10.72
2019-05-10T07:09:09.464Z,10.80
2019-05-10T07:11:39.553Z,10.79
2019-05-10T07:14:09.638Z,10.80
2019-05-10T07:16:39.715Z,10.85
2019-05-10T07:19:09.801Z,10.90
2019-05-10T07:21:44.771Z,10.97
2019-05-10T07:24:11.661Z,11.08
2019-05-10T07:26:41.741Z,11.19
2019-05-10T07:29:11.782Z,11.20
2019-05-10T07:31:42.064Z,11.46
2019-05-10T07:34:15.585Z,11.60
2019-05-10T07:36:43.870Z,11.88
2019-05-10T07:39:13.931Z,12.08
2019-05-10T07:41:44.021Z,12.21
2019-05-10T07:44:14.369Z,12.27
2019-05-10T07:46:47.021Z,12.42
2019-05-10T07:49:16.263Z,12.55
2019-05-10T07:51:46.362Z,12.66
2019-05-10T07:54:16.408Z,12.68
2019-05-10T07:56:47.944Z,12.71
2019-05-10T07:59:21.990Z,12.90
2019-05-10T08:01:49.861Z,12.98
2019-05-10T08:04:28.848Z,13.09
2019-05-10T08:06:52.245Z,13.29
2019-05-10T08:09:22.452Z,13.45
2019-05-10T08:11:54.000Z,13.48
2019-05-10T08:14:25.480Z,13.44
2019-05-10T08:16:58.565Z,13.85
2019-05-10T08:19:27.655Z,13.76
2019-05-10T08:22:01.831Z,13.81
2019-05-10T08:24:29.556Z,13.74
2019-05-10T08:27:09.746Z,14.00
2019-05-10T08:29:33.059Z,14.37
2019-05-10T08:32:03.411Z,14.54
2019-05-10T08:34:35.595Z,14.37
2019-05-10T08:37:05.572Z,14.50
2019-05-10T08:39:45.139Z,14.73
2019-05-10T08:42:27.451Z,14.76
2019-05-10T08:44:39.271Z,14.97
2019-05-10T08:47:16.169Z,15.28
2019-05-10T08:49:55.352Z,15.27
2019-05-10T08:52:13.008Z,15.44
2019-05-10T08:54:43.080Z,15.49
2019-05-10T08:57:18.565Z,15.76
2019-05-10T08:59:44.949Z,16.15
2019-05-10T09:02:15.320Z,16.47
2019-05-10T09:04:49.902Z,16.66
2019-05-10T09:07:17.378Z,16.30
2019-05-10T09:09:50.106Z,16.37
2019-05-10T09:12:19.505Z,16.71
2019-05-10T09:14:57.362Z,16.65
2019-05-10T09:17:23.584Z,16.60
2019-05-10T09:19:53.174Z,16.99
2019-05-10T09:22:32.007Z,16.77
2019-05-10T09:24:55.015Z,16.56
2019-05-10T09:27:29.138Z,16.83
2019-05-10T09:29:56.838Z,17.35
2019-05-10T09:32:28.805Z,17.55
2019-05-10T09:34:59.829Z,17.82
2019-05-10T09:37:32.059Z,17.61
2019-05-10T09:40:09.330Z,17.58
2019-05-10T09:42:40.078Z,17.50
2019-05-10T09:45:09.688Z,17.56
2019-05-10T09:47:39.049Z,17.56
2019-05-10T09:50:09.329Z,17.26
2019-05-10T09:52:39.432Z,17.14
2019-05-10T09:55:14.534Z,17.08
2019-05-10T09:57:41.328Z,16.92
2019-05-10T10:00:12.200Z,16.78
2019-05-10T10:02:47.704Z,16.62
2019-05-10T10:05:14.078Z,16.57
2019-05-10T10:07:44.189Z,16.51
2019-05-10T10:10:21.224Z,16.50
2019-05-10T10:12:47.510Z,16.51
2019-05-10T10:15:25.298Z,16.63
2019-05-10T10:17:49.669Z,16.78
2019-05-10T10:20:19.862Z,16.96
2019-05-10T10:22:54.553Z,17.07
2019-05-10T10:25:21.687Z,17.22
2019-05-10T10:27:51.727Z,17.19
2019-05-10T10:30:21.905Z,17.18
2019-05-10T10:32:51.957Z,17.19
2019-05-10T10:35:26.894Z,17.31
2019-05-10T10:37:57.376Z,17.22
2019-05-10T10:40:27.975Z,17.27
2019-05-10T10:42:57.864Z,17.34
2019-05-10T10:45:28.084Z,17.35
2019-05-10T10:48:02.509Z,17.35
2019-05-10T10:50:29.927Z,17.52
2019-05-10T10:53:00.122Z,17.73
2019-05-10T10:55:34.786Z,17.83
2019-05-10T10:58:01.999Z,17.92
2019-05-10T11:00:38.800Z,18.15
2019-05-10T11:03:08.204Z,18.23
2019-05-10T11:05:38.406Z,18.14
2019-05-10T11:08:11.001Z,17.88
2019-05-10T11:10:40.600Z,17.72
2019-05-10T11:13:18.793Z,17.60
2019-05-10T11:15:43.924Z,17.51
2019-05-10T11:18:13.990Z,17.52
2019-05-10T11:20:49.553Z,17.50
2019-05-10T11:23:16.389Z,17.55
2019-05-10T11:25:54.843Z,17.35
2019-05-10T11:28:20.543Z,17.38
2019-05-10T11:30:51.154Z,17.46
2019-05-10T11:33:29.735Z,17.57
2019-05-10T11:35:57.675Z,17.63
2019-05-10T11:38:27.417Z,17.84
2019-05-10T11:40:57.497Z,17.87
2019-05-10T11:43:27.565Z,17.95
2019-05-10T11:45:57.663Z,18.02
2019-05-10T11:48:29.024Z,18.10
2019-05-10T11:50:59.640Z,18.31
2019-05-10T11:53:31.524Z,18.24
2019-05-10T11:56:02.266Z,18.46
2019-05-10T11:58:37.590Z,18.40
2019-05-10T12:01:14.765Z,18.68
2019-05-10T12:03:36.037Z,18.53
2019-05-10T12:06:08.981Z,18.17
2019-05-10T12:08:37.907Z,18.18
2019-05-10T12:11:24.142Z,18.64
2019-05-10T12:13:39.824Z,18.72
2019-05-10T12:16:16.121Z,18.43
2019-05-10T12:18:46.682Z,18.71
2019-05-10T12:21:13.480Z,18.58
2019-05-10T12:23:50.340Z,18.67
2019-05-10T12:27:13.863Z,18.71
2019-05-10T12:28:47.133Z,18.68
2019-05-10T12:31:17.315Z,18.72
2019-05-10T12:33:47.398Z,18.88
2019-05-10T12:36:23.476Z,18.94
2019-05-10T12:38:49.293Z,19.00
2019-05-10T12:41:23.213Z,18.73
2019-05-10T12:43:51.787Z,18.62
2019-05-10T12:46:22.057Z,18.56
2019-05-10T12:48:52.149Z,18.56
2019-05-10T12:51:22.226Z,18.67
2019-05-10T12:53:52.404Z,18.81
2019-05-10T12:56:22.489Z,18.92
2019-05-10T12:58:57.699Z,18.84
2019-05-10T13:01:25.427Z,18.90
2019-05-10T13:03:56.174Z,18.91
2019-05-10T13:06:26.269Z,18.55
2019-05-10T13:08:56.371Z,18.41
2019-05-10T13:11:27.150Z,18.34
2019-05-10T13:14:01.147Z,18.39
2019-05-10T13:16:29.168Z,18.36
2019-05-10T13:18:59.290Z,18.41
2019-05-10T13:21:30.383Z,18.50
2019-05-10T13:24:00.820Z,18.64
2019-05-10T13:26:30.860Z,18.73
2019-05-10T13:29:02.078Z,18.80
2019-05-10T13:31:42.059Z,18.97
2019-05-10T13:34:05.038Z,19.01
2019-05-10T13:36:37.027Z,18.83
2019-05-10T13:39:07.634Z,18.72
2019-05-10T13:41:37.713Z,18.40
2019-05-10T13:44:07.826Z,18.24
2019-05-10T13:46:37.898Z,17.91
2019-05-10T13:49:08.016Z,18.04
2019-05-10T13:51:38.093Z,18.13
2019-05-10T13:54:08.194Z,18.18
2019-05-10T13:56:45.491Z,18.39
2019-05-10T13:59:18.078Z,18.58
2019-05-10T14:01:44.156Z,18.72
2019-05-10T14:04:13.978Z,18.81
2019-05-10T14:06:44.051Z,18.77
2019-05-10T14:09:14.167Z,18.76
2019-05-10T14:11:46.989Z,18.76
2019-05-10T14:14:20.571Z,18.65
2019-05-10T14:16:49.302Z,18.55
2019-05-10T14:19:22.747Z,18.58
2019-05-10T14:21:51.224Z,18.71
2019-05-10T14:24:21.318Z,18.68
2019-05-10T14:26:56.708Z,18.75
2019-05-10T14:29:33.379Z,18.78
2019-05-10T14:31:54.973Z,18.60
2019-05-10T14:34:25.083Z,18.55
2019-05-10T14:36:55.149Z,18.34
2019-05-10T14:39:25.263Z,18.24
2019-05-10T14:41:55.335Z,18.10
2019-05-10T14:44:25.436Z,17.99
2019-05-10T14:46:55.530Z,17.92
2019-05-10T14:49:25.628Z,17.82
2019-05-10T14:51:59.374Z,17.98
2019-05-10T14:54:41.549Z,18.23
2019-05-10T14:56:59.258Z,18.37
2019-05-10T14:59:29.403Z,18.30
2019-05-10T15:01:59.527Z,18.47
2019-05-10T15:04:44.530Z,18.43
2019-05-10T15:07:01.372Z,18.44
2019-05-10T15:09:31.431Z,18.48
2019-05-10T15:12:01.490Z,18.53
2019-05-10T15:14:35.656Z,18.32
2019-05-10T15:17:05.749Z,17.99
2019-05-10T15:19:35.798Z,17.68
2019-05-10T15:22:05.894Z,17.53
2019-05-10T15:24:36.034Z,17.44
2019-05-10T15:27:06.104Z,17.35
2019-05-10T15:29:36.194Z,17.16
2019-05-10T15:32:06.365Z,17.14
2019-05-10T15:34:36.431Z,17.04
2019-05-10T15:37:09.598Z,16.96
2019-05-10T15:39:38.328Z,16.90
2019-05-10T15:42:09.846Z,16.82
2019-05-10T15:44:39.948Z,17.08
2019-05-10T15:47:14.501Z,17.06
2019-05-10T15:49:41.828Z,17.03
2019-05-10T15:52:17.375Z,16.85
2019-05-10T15:54:46.844Z,16.79
2019-05-10T15:57:20.348Z,16.61
2019-05-10T15:59:50.839Z,16.51
2019-05-10T16:02:19.382Z,16.44
2019-05-10T16:04:49.458Z,16.34
2019-05-10T16:07:19.527Z,16.33
2019-05-10T16:09:54.004Z,16.35
2019-05-10T16:12:21.330Z,16.48
2019-05-10T16:14:51.376Z,16.51
2019-05-10T16:17:23.943Z,16.47
2019-05-10T16:19:59.445Z,16.44
2019-05-10T16:22:30.001Z,16.36
2019-05-10T16:25:00.542Z,16.23
2019-05-10T16:27:28.575Z,16.10
2019-05-10T16:29:58.660Z,16.01
2019-05-10T16:32:34.062Z,15.96
2019-05-10T16:35:05.593Z,15.87
2019-05-10T16:37:32.352Z,15.75
2019-05-10T16:40:02.601Z,15.82
2019-05-10T16:42:34.445Z,15.86
2019-05-10T16:45:05.320Z,15.91
2019-05-10T16:47:35.402Z,15.86
2019-05-10T16:50:09.077Z,15.79
2019-05-10T16:52:39.162Z,15.87
2019-05-10T16:55:10.034Z,15.86
2019-05-10T16:57:40.237Z,15.85
2019-05-10T17:00:11.128Z,15.92
2019-05-10T17:02:43.883Z,15.93
2019-05-10T17:05:15.299Z,16.00
2019-05-10T17:07:44.960Z,15.92
2019-05-10T17:10:15.240Z,15.90
2019-05-10T17:12:45.319Z,15.87
2019-05-10T17:15:15.498Z,15.84
2019-05-10T17:17:45.586Z,15.84
2019-05-10T17:20:16.091Z,15.85
2019-05-10T17:22:46.136Z,15.83
2019-05-10T17:25:16.206Z,15.81
2019-05-10T17:27:50.639Z,15.75
2019-05-10T17:30:21.823Z,15.72
2019-05-10T17:32:50.671Z,15.69
2019-05-10T17:35:20.751Z,15.62
2019-05-10T17:37:52.983Z,15.65
2019-05-10T17:40:22.637Z,15.68
2019-05-10T17:42:52.718Z,15.68
2019-05-10T17:45:22.793Z,15.64
2019-05-10T17:47:52.893Z,15.67
2019-05-10T17:50:22.975Z,15.56
2019-05-10T17:52:53.057Z,15.50
2019-05-10T17:55:25.433Z,15.44
2019-05-10T17:57:56.538Z,15.40
2019-05-10T18:00:26.834Z,15.44
2019-05-10T18:02:56.931Z,15.42
2019-05-10T18:05:26.985Z,15.41
2019-05-10T18:07:57.298Z,15.37
2019-05-10T18:10:27.351Z,15.31
2019-05-10T18:13:03.180Z,15.30
2019-05-10T18:15:32.870Z,15.28
2019-05-10T18:18:04.401Z,15.24
2019-05-10T18:20:40.982Z,15.27
2019-05-10T18:23:06.554Z,15.22
2019-05-10T18:25:41.472Z,15.15
2019-05-10T18:28:24.767Z,15.15
2019-05-10T18:31:11.010Z,15.06
2019-05-10T18:33:54.173Z,15.08
2019-05-10T18:36:26.795Z,15.05
2019-05-10T18:38:53.037Z,14.99
2019-05-10T18:41:25.865Z,14.96
2019-05-10T18:43:57.349Z,14.89
2019-05-10T18:46:29.618Z,14.79
2019-05-10T18:49:00.271Z,14.75
2019-05-10T18:51:34.382Z,14.79
2019-05-10T18:54:09.385Z,14.77
2019-05-10T18:56:39.958Z,14.76
2019-05-10T18:59:10.795Z,14.75
2019-05-10T19:01:41.816Z,14.67
2019-05-10T19:04:14.173Z,14.64
2019-05-10T19:06:49.787Z,14.69
2019-05-10T19:09:19.019Z,14.71
2019-05-10T19:11:49.451Z,14.64
2019-05-10T19:14:37.350Z,14.66
2019-05-10T19:17:14.019Z,14.61
2019-05-10T19:19:46.518Z,14.56
2019-05-10T19:22:16.837Z,14.56
2019-05-10T19:24:48.968Z,14.57
2019-05-10T19:27:19.483Z,14.59
2019-05-10T19:29:50.432Z,14.55
2019-05-10T19:32:21.022Z,14.52
2019-05-10T19:35:08.465Z,14.46
2019-05-10T19:37:50.965Z,14.42
2019-05-10T19:40:28.857Z,14.35
2019-05-10T19:46:30.176Z,14.30
2019-05-10T19:49:13.259Z,14.30
2019-05-10T19:51:48.291Z,14.32
2019-05-10T19:54:23.111Z,14.33
2019-05-10T19:56:57.652Z,14.33
2019-05-10T19:59:38.050Z,14.32
2019-05-10T20:02:16.525Z,14.27
2019-05-10T20:04:45.724Z,14.25
2019-05-10T20:07:15.898Z,14.24
2019-05-10T20:09:53.704Z,14.24
2019-05-10T20:12:29.636Z,14.22
2019-05-10T20:15:01.971Z,14.17
2019-05-10T20:17:35.501Z,14.16
2019-05-10T20:20:10.785Z,14.19
2019-05-10T20:22:41.988Z,14.14
2019-05-10T20:25:14.071Z,14.10
2019-05-10T20:27:45.150Z,14.10
2019-05-10T20:30:16.245Z,14.09
2019-05-10T20:32:46.939Z,14.08
2019-05-10T20:35:18.325Z,14.06
2019-05-10T20:38:01.524Z,14.00
2019-05-10T20:40:21.668Z,13.98
2019-05-10T20:42:52.217Z,13.99
2019-05-10T20:45:25.410Z,13.98
2019-05-10T20:47:56.031Z,13.98
2019-05-10T20:50:26.860Z,13.99
2019-05-10T20:52:57.594Z,13.94
2019-05-10T20:55:27.940Z,13.86
2019-05-10T20:57:58.890Z,13.83
2019-05-10T21:00:30.710Z,13.82
2019-05-10T21:03:01.281Z,13.80
2019-05-10T21:05:31.363Z,13.83
2019-05-10T21:08:15.083Z,13.85
2019-05-10T21:10:33.206Z,13.78
2019-05-10T21:13:03.305Z,13.83
2019-05-10T21:15:33.386Z,13.82
2019-05-10T21:18:03.489Z,13.79
2019-05-10T21:20:33.598Z,13.78
2019-05-10T21:23:03.698Z,13.76
2019-05-10T21:25:33.774Z,13.70
2019-05-10T21:28:03.871Z,13.71
2019-05-10T21:30:33.957Z,13.67
2019-05-10T21:33:04.051Z,13.60
2019-05-10T21:35:34.139Z,13.60
2019-05-10T21:38:04.220Z,13.56
2019-05-10T21:40:34.621Z,13.50
2019-05-10T21:43:04.710Z,13.47
2019-05-10T21:45:34.785Z,13.42
2019-05-10T21:48:04.896Z,13.39
2019-05-10T21:50:34.957Z,13.31
2019-05-10T21:53:05.044Z,13.29
2019-05-10T21:55:35.096Z,13.23
2019-05-10T21:58:05.164Z,13.26
2019-05-10T22:00:39.909Z,13.17
2019-05-10T22:03:09.981Z,13.09
2019-05-10T22:05:40.055Z,13.08
2019-05-10T22:08:10.141Z,13.05
2019-05-10T22:10:40.384Z,13.01
2019-05-10T22:13:10.494Z,12.99
2019-05-10T22:15:40.669Z,12.93
2019-05-10T22:18:10.765Z,12.85
2019-05-10T22:20:40.855Z,12.81
2019-05-10T22:23:10.951Z,12.73
2019-05-10T22:25:41.041Z,12.67
2019-05-10T22:28:11.363Z,12.64
2019-05-10T22:30:41.445Z,12.60
2019-05-10T22:33:11.539Z,12.55
2019-05-10T22:35:41.614Z,12.55
2019-05-10T22:38:11.723Z,12.50
2019-05-10T22:40:41.808Z,12.47
2019-05-10T22:43:11.941Z,12.42
2019-05-10T22:45:42.021Z,12.38
2019-05-10T22:48:12.133Z,12.34
2019-05-10T22:50:42.213Z,12.37
2019-05-10T22:53:12.273Z,12.38
2019-05-10T22:55:42.343Z,12.38
2019-05-10T22:58:12.424Z,12.33
2019-05-10T23:00:42.499Z,12.36
2019-05-10T23:03:12.559Z,12.40
2019-05-10T23:05:42.655Z,12.40
2019-05-10T23:08:12.668Z,12.37
2019-05-10T23:10:42.749Z,12.35
2019-05-10T23:13:12.779Z,12.37
2019-05-10T23:15:42.872Z,12.39
2019-05-10T23:18:13.120Z,12.36
2019-05-10T23:20:43.194Z,12.35
2019-05-10T23:23:13.241Z,12.17
2019-05-10T23:25:43.305Z,12.13
2019-05-10T23:28:13.342Z,12.11
2019-05-10T23:30:43.432Z,12.05
2019-05-10T23:33:13.478Z,12.01
2019-05-10T23:35:43.558Z,11.96
2019-05-10T23:38:13.610Z,11.90
2019-05-10T23:40:43.697Z,11.89
2019-05-10T23:43:13.726Z,11.81
2019-05-10T23:45:43.798Z,11.80
2019-05-10T23:48:13.861Z,11.77
2019-05-10T23:50:43.943Z,11.73
2019-05-10T23:53:13.996Z,11.70
2019-05-10T23:55:44.089Z,11.60
2019-05-10T23:58:14.160Z,11.62
